Time;durP1;ratioP1;P1;durP2;ratioP2;P2;SDS_P1;SDS_P2;PMS_P1;PMS_P2;Temp;Humidity;BMP_temperature;BMP_pressure;BME280_temperature;BME280_humidity;BME280_pressure;Samples;Min_cycle;Max_cycle;Signal;HPM_P1;HPM_P2
2022/04/10 00:00:51;;;;;;;;;;;;;;;;;;5049926;28;1342;-66
2022/04/10 00:03:17;;;;;;;;;;;;;;;;;;5048851;28;1298;-67
2022/04/10 00:05:42;;;;;;;;;;;;;;;;;;5068102;28;1325;-67
2022/04/10 00:08:07;;;;;;;;;;;;;;;;;;5051802;28;1290;-65
2022/04/10 00:10:32;;;;;;;;;;;;;;;;;;5049868;28;1893;-65
2022/04/10 00:12:58;;;;;;;;;;;;;;;;;;5051309;28;1338;-66
2022/04/10 00:15:23;;;;;;;;;;;;;;;;;;5049818;28;1431;-65
2022/04/10 00:17:48;;;;;;;;;;;;;;;;;;5065485;28;1246;-64
2022/04/10 00:20:14;;;;;;;;;;;;;;;;;;5049237;28;1329;-65
2022/04/10 00:22:43;;;;;;;;;;;;;;;;;;5052021;28;1355;-65
2022/04/10 00:25:09;;;;;;;;;;;;;;;;;;5054415;28;1310;-67
2022/04/10 00:27:34;;;;;;;;;;;;;;;;;;5054586;28;1301;-65
2022/04/10 00:29:59;;;;;;;;;;;;;;;;;;5052981;28;1953;-66
2022/04/10 00:32:25;;;;;;;;;;;;;;;;;;5054250;28;1294;-66
2022/04/10 00:34:50;;;;;;;;;;;;;;;;;;5070694;28;1334;-69
2022/04/10 00:37:17;;;;;;;;;;;;;;;;;;5054514;28;1302;-66
2022/04/10 00:39:42;;;;;;;;;;;;;;;;;;5053773;28;1263;-65
2022/04/10 00:42:07;;;;;;;;;;;;;;;;;;5056531;28;1471;-66
2022/04/10 00:44:34;;;;;;;;;;;;;;;;;;5052688;28;1345;-66
2022/04/10 00:46:59;;;;;;;;;;;;;;;;;;5053798;28;1266;-65
2022/04/10 00:49:24;;;;;;;;;;;;;;;;;;5056373;28;1253;-65
2022/04/10 00:51:52;;;;;;;;;;;;;;;;;;5054716;28;1971;-66
2022/04/10 00:54:19;;;;;;;;;;;;;;;;;;5055993;28;1531;-66
2022/04/10 00:56:45;;;;;;;;;;;;;;;;;;5057413;28;1208;-67
2022/04/10 00:59:11;;;;;;;;;;;;;;;;;;5057203;28;1262;-66
2022/04/10 01:01:37;;;;;;;;;;;;;;;;;;5068135;28;1373;-67
2022/04/10 01:04:05;;;;;;;;;;;;;;;;;;5069688;28;1313;-66
2022/04/10 01:06:34;;;;;;;;;;;;;;;;;;5055363;28;1386;-67
2022/04/10 01:08:59;;;;;;;;;;;;;;;;;;5057680;28;1340;-67
2022/04/10 01:11:28;;;;;;;;;;;;;;;;;;5055988;28;1957;-68
2022/04/10 01:13:53;;;;;;;;;;;;;;;;;;5053948;28;1385;-67
2022/04/10 01:16:19;;;;;;;;;;;;;;;;;;5056976;28;1326;-67
2022/04/10 01:18:45;;;;;;;;;;;;;;;;;;5062442;28;1340;-67
2022/04/10 01:21:11;;;;;;;;;;;;;;;;;;5061374;28;1250;-67
2022/04/10 01:23:37;;;;;;;;;;;;;;;;;;5055825;28;1447;-66
2022/04/10 01:26:02;;;;;;;;;;;;;;;;;;5055146;28;1278;-67
2022/04/10 01:28:28;;;;;;;;;;;;;;;;;;5061889;28;1235;-67
2022/04/10 01:30:53;;;;;;;;;;;;;;;;;;5059506;28;1910;-67
2022/04/10 01:33:18;;;;;;;;;;;;;;;;;;5052083;28;1264;-67
2022/04/10 01:35:43;;;;;;;;;;;;;;;;;;5053524;28;1309;-67
2022/04/10 01:38:09;;;;;;;;;;;;;;;;;;5054092;28;1621;-67
2022/04/10 01:40:35;;;;;;;;;;;;;;;;;;5053587;28;1550;-67
2022/04/10 01:43:00;;;;;;;;;;;;;;;;;;5051650;28;1402;-67
2022/04/10 01:45:25;;;;;;;;;;;;;;;;;;5052013;28;1291;-67
2022/04/10 01:47:51;;;;;;;;;;;;;;;;;;5051122;28;1255;-67
2022/04/10 01:50:16;;;;;;;;;;;;;;;;;;5052357;28;1898;-67
2022/04/10 01:52:41;;;;;;;;;;;;;;;;;;5051253;28;1261;-67
2022/04/10 01:55:07;;;;;;;;;;;;;;;;;;5052101;28;1242;-68
2022/04/10 01:57:32;;;;;;;;;;;;;;;;;;5051807;28;1194;-67
2022/04/10 01:59:57;;;;;;;;;;;;;;;;;;5052663;28;1349;-67
2022/04/10 02:02:22;;;;;;;;;;;;;;;;;;5051087;28;1412;-67
2022/04/10 02:04:48;;;;;;;;;;;;;;;;;;5051809;28;1382;-67
2022/04/10 02:07:13;;;;;;;;;;;;;;;;;;5052621;28;1373;-67
2022/04/10 02:09:38;;;;;;;;;;;;;;;;;;5051472;28;1287;-67
2022/04/10 02:12:03;;;;;;;;;;;;;;;;;;5052966;28;1894;-67
2022/04/10 02:14:29;;;;;;;;;;;;;;;;;;5051879;28;1258;-67
2022/04/10 02:16:54;;;;;;;;;;;;;;;;;;5051875;28;1321;-67
2022/04/10 02:19:19;;;;;;;;;;;;;;;;;;5052189;28;1315;-67
2022/04/10 02:21:44;;;;;;;;;;;;;;;;;;5051502;28;2016;-67
2022/04/10 02:24:09;;;;;;;;;;;;;;;;;;5051627;28;1219;-67
2022/04/10 02:26:35;;;;;;;;;;;;;;;;;;5052247;28;1459;-67
2022/04/10 02:29:00;;;;;;;;;;;;;;;;;;5051098;28;1287;-67
2022/04/10 02:31:25;;;;;;;;;;;;;;;;;;5052426;28;1246;-66
2022/04/10 02:33:51;;;;;;;;;;;;;;;;;;5051816;28;1401;-67
2022/04/10 02:36:16;;;;;;;;;;;;;;;;;;5051396;28;1315;-66
2022/04/10 02:38:42;;;;;;;;;;;;;;;;;;5051902;28;1258;-66
2022/04/10 02:41:07;;;;;;;;;;;;;;;;;;5051856;28;1973;-66
2022/04/10 02:43:32;;;;;;;;;;;;;;;;;;5051367;28;1413;-66
2022/04/10 02:45:57;;;;;;;;;;;;;;;;;;5051902;28;1422;-66
2022/04/10 02:48:22;;;;;;;;;;;;;;;;;;5051664;28;1424;-66
2022/04/10 02:50:48;;;;;;;;;;;;;;;;;;5051484;28;1353;-66
2022/04/10 02:53:13;;;;;;;;;;;;;;;;;;5051167;28;1451;-66
2022/04/10 02:55:38;;;;;;;;;;;;;;;;;;5052990;28;1350;-66
2022/04/10 02:58:03;;;;;;;;;;;;;;;;;;5051512;28;1290;-67
2022/04/10 03:00:29;;;;;;;;;;;;;;;;;;5050583;28;1893;-67
2022/04/10 03:02:55;;;;;;;;;;;;;;;;;;5050063;28;1343;-67
2022/04/10 03:05:20;;;;;;;;;;;;;;;;;;5050859;28;1258;-67
2022/04/10 03:07:45;;;;;;;;;;;;;;;;;;5051118;28;1251;-67
2022/04/10 03:10:10;;;;;;;;;;;;;;;;;;5051888;28;1247;-67
2022/04/10 03:12:35;;;;;;;;;;;;;;;;;;5050937;28;1283;-67
2022/04/10 03:15:01;;;;;;;;;;;;;;;;;;5049985;28;1183;-67
2022/04/10 03:17:26;;;;;;;;;;;;;;;;;;5051155;28;1363;-66
2022/04/10 03:19:51;;;;;;;;;;;;;;;;;;5051665;28;1266;-67
2022/04/10 03:22:16;;;;;;;;;;;;;;;;;;5049892;28;1969;-67
2022/04/10 03:24:41;;;;;;;;;;;;;;;;;;5052387;28;1363;-66
2022/04/10 03:27:07;;;;;;;;;;;;;;;;;;5050022;28;1315;-66
2022/04/10 03:29:32;;;;;;;;;;;;;;;;;;5050653;28;1345;-66
2022/04/10 03:31:57;;;;;;;;;;;;;;;;;;5049172;28;1370;-66
2022/04/10 03:34:22;;;;;;;;;;;;;;;;;;5050316;28;1263;-66
2022/04/10 03:36:47;;;;;;;;;;;;;;;;;;5049861;28;1180;-66
2022/04/10 03:39:13;;;;;;;;;;;;;;;;;;5053634;28;1378;-65
2022/04/10 03:41:38;;;;;;;;;;;;;;;;;;5050876;28;1965;-65
2022/04/10 03:44:03;;;;;;;;;;;;;;;;;;5049283;28;1304;-65
2022/04/10 03:46:28;;;;;;;;;;;;;;;;;;5050611;28;1326;-66
2022/04/10 03:48:53;;;;;;;;;;;;;;;;;;5050821;28;1314;-67
2022/04/10 03:51:19;;;;;;;;;;;;;;;;;;5049697;28;1322;-67
2022/04/10 03:53:44;;;;;;;;;;;;;;;;;;5051965;28;1228;-67
2022/04/10 03:56:09;;;;;;;;;;;;;;;;;;5049406;28;1310;-67
2022/04/10 03:58:34;;;;;;;;;;;;;;;;;;5050836;28;1449;-67
2022/04/10 04:00:59;;;;;;;;;;;;;;;;;;5050859;28;1959;-67
2022/04/10 04:03:25;;;;;;;;;;;;;;;;;;5067296;28;1392;-67
2022/04/10 04:05:50;;;;;;;;;;;;;;;;;;5051660;28;1374;-67
2022/04/10 04:08:15;;;;;;;;;;;;;;;;;;5049695;28;1343;-67
2022/04/10 04:10:41;;;;;;;;;;;;;;;;;;5053123;28;1280;-67
2022/04/10 04:13:06;;;;;;;;;;;;;;;;;;5049828;28;1351;-67
2022/04/10 04:15:31;;;;;;;;;;;;;;;;;;5052412;28;1260;-67
2022/04/10 04:17:56;;;;;;;;;;;;;;;;;;5053028;28;1355;-66
2022/04/10 04:20:22;;;;;;;;;;;;;;;;;;5049538;28;1973;-66
2022/04/10 04:22:48;;;;;;;;;;;;;;;;;;5050743;28;1227;-66
2022/04/10 04:25:14;;;;;;;;;;;;;;;;;;5048957;28;1113;-66
2022/04/10 04:27:39;;;;;;;;;;;;;;;;;;5049910;28;1218;-66
2022/04/10 04:30:05;;;;;;;;;;;;;;;;;;5050367;28;1239;-66
2022/04/10 04:32:30;;;;;;;;;;;;;;;;;;5049242;28;1302;-67
2022/04/10 04:34:55;;;;;;;;;;;;;;;;;;5050056;28;1286;-66
2022/04/10 04:37:20;;;;;;;;;;;;;;;;;;5050233;28;1415;-66
2022/04/10 04:39:45;;;;;;;;;;;;;;;;;;5049191;28;1342;-66
2022/04/10 04:42:10;;;;;;;;;;;;;;;;;;5050725;28;1954;-66
2022/04/10 04:44:36;;;;;;;;;;;;;;;;;;5049354;28;1259;-66
2022/04/10 04:47:02;;;;;;;;;;;;;;;;;;5050040;28;1291;-67
2022/04/10 04:49:27;;;;;;;;;;;;;;;;;;5050068;28;1392;-67
2022/04/10 04:51:52;;;;;;;;;;;;;;;;;;5048732;28;1289;-67
2022/04/10 04:54:17;;;;;;;;;;;;;;;;;;5050540;28;1180;-66
2022/04/10 04:56:43;;;;;;;;;;;;;;;;;;5049048;28;1357;-67
2022/04/10 04:59:08;;;;;;;;;;;;;;;;;;5050065;28;1279;-66
2022/04/10 05:01:33;;;;;;;;;;;;;;;;;;5048621;28;1890;-66
2022/04/10 05:03:59;;;;;;;;;;;;;;;;;;5049997;28;1394;-66
2022/04/10 05:06:27;;;;;;;;;;;;;;;;;;5049178;28;1247;-66
2022/04/10 05:08:52;;;;;;;;;;;;;;;;;;5051320;28;1211;-66
2022/04/10 05:11:17;;;;;;;;;;;;;;;;;;5054526;28;1388;-66
2022/04/10 05:13:43;;;;;;;;;;;;;;;;;;5053114;28;1357;-66
2022/04/10 05:16:08;;;;;;;;;;;;;;;;;;5053429;28;1239;-66
2022/04/10 05:18:33;;;;;;;;;;;;;;;;;;5053424;28;1386;-65
2022/04/10 05:20:59;;;;;;;;;;;;;;;;;;5053451;28;1909;-66
2022/04/10 05:23:24;;;;;;;;;;;;;;;;;;5053901;28;1459;-65
2022/04/10 05:25:50;;;;;;;;;;;;;;;;;;5055069;28;1398;-65
2022/04/10 05:28:15;;;;;;;;;;;;;;;;;;5053443;28;1302;-65
2022/04/10 05:30:41;;;;;;;;;;;;;;;;;;5052147;28;1339;-65
2022/04/10 05:33:06;;;;;;;;;;;;;;;;;;5051374;28;1348;-65
2022/04/10 05:35:32;;;;;;;;;;;;;;;;;;5053599;28;1415;-65
2022/04/10 05:37:57;;;;;;;;;;;;;;;;;;5052681;28;1409;-66
2022/04/10 05:40:22;;;;;;;;;;;;;;;;;;5053659;28;1966;-67
2022/04/10 05:42:48;;;;;;;;;;;;;;;;;;5053171;28;1275;-66
2022/04/10 05:45:13;;;;;;;;;;;;;;;;;;5053358;28;1213;-66
2022/04/10 05:47:39;;;;;;;;;;;;;;;;;;5053381;28;1321;-66
2022/04/10 05:50:05;;;;;;;;;;;;;;;;;;5052621;28;1234;-67
2022/04/10 05:52:30;;;;;;;;;;;;;;;;;;5052201;28;1430;-67
2022/04/10 05:54:59;;;;;;;;;;;;;;;;;;5052117;28;1202;-67
2022/04/10 05:57:24;;;;;;;;;;;;;;;;;;5052423;28;1241;-66
2022/04/10 05:59:49;;;;;;;;;;;;;;;;;;5066321;28;1270;-67
2022/04/10 06:02:15;;;;;;;;;;;;;;;;;;5051544;28;1894;-67
2022/04/10 06:04:40;;;;;;;;;;;;;;;;;;5051865;28;1584;-66
2022/04/10 06:07:05;;;;;;;;;;;;;;;;;;5052917;28;1278;-66
2022/04/10 06:09:30;;;;;;;;;;;;;;;;;;5051683;28;1345;-66
2022/04/10 06:11:55;;;;;;;;;;;;;;;;;;5051437;28;1260;-66
2022/04/10 06:14:22;;;;;;;;;;;;;;;;;;5051449;28;1239;-66
2022/04/10 06:16:48;;;;;;;;;;;;;;;;;;5050125;28;1367;-66
2022/04/10 06:19:16;;;;;;;;;;;;;;;;;;5051254;28;1302;-66
2022/04/10 06:21:41;;;;;;;;;;;;;;;;;;5066686;28;1969;-66
2022/04/10 06:24:06;;;;;;;;;;;;;;;;;;5050600;28;1262;-66
2022/04/10 06:26:31;;;;;;;;;;;;;;;;;;5052373;28;1247;-67
2022/04/10 06:28:57;;;;;;;;;;;;;;;;;;5053035;28;1336;-67
2022/04/10 06:31:22;;;;;;;;;;;;;;;;;;5051672;28;1296;-67
2022/04/10 06:33:47;;;;;;;;;;;;;;;;;;5051299;28;1289;-67
2022/04/10 06:36:12;;;;;;;;;;;;;;;;;;5052771;28;1482;-66
2022/04/10 06:38:37;;;;;;;;;;;;;;;;;;5053470;28;1283;-65
2022/04/10 06:41:02;;;;;;;;;;;;;;;;;;5054041;28;1957;-65
2022/04/10 06:43:28;;;;;;;;;;;;;;;;;;5051056;28;1350;-66
2022/04/10 06:45:53;;;;;;;;;;;;;;;;;;5052385;28;1357;-67
2022/04/10 06:48:18;;;;;;;;;;;;;;;;;;5051781;28;1306;-67
2022/04/10 06:50:44;;;;;;;;;;;;;;;;;;5050292;28;1339;-67
2022/04/10 06:53:09;;;;;;;;;;;;;;;;;;5051225;28;1262;-66
2022/04/10 06:55:35;;;;;;;;;;;;;;;;;;5056199;28;1289;-66
2022/04/10 06:58:00;;;;;;;;;;;;;;;;;;5056562;28;1400;-67
2022/04/10 07:00:25;;;;;;;;;;;;;;;;;;5051794;28;1955;-66
2022/04/10 07:02:50;;;;;;;;;;;;;;;;;;5052125;28;1301;-67
2022/04/10 07:05:16;;;;;;;;;;;;;;;;;;5058491;28;1502;-67
2022/04/10 07:07:41;;;;;;;;;;;;;;;;;;5051636;28;1374;-66
2022/04/10 07:10:06;;;;;;;;;;;;;;;;;;5056511;28;1222;-67
2022/04/10 07:12:31;;;;;;;;;;;;;;;;;;5058383;28;1370;-67
2022/04/10 07:14:59;;;;;;;;;;;;;;;;;;5058645;28;1242;-67
2022/04/10 07:17:25;;;;;;;;;;;;;;;;;;5054357;28;1307;-67
2022/04/10 07:19:50;;;;;;;;;;;;;;;;;;5051639;28;1255;-65
2022/04/10 07:24:59;;;;;;;;;;;;;;;;;;5051804;28;1196;-62
2022/04/10 07:27:24;;;;;;;;;;;;;;;;;;5050403;28;1290;-64
2022/04/10 07:29:49;;;;;;;;;;;;;;;;;;5051565;28;1392;-65
2022/04/10 07:32:14;;;;;;;;;;;;;;;;;;5052727;28;1619;-66
2022/04/10 07:34:40;;;;;;;;;;;;;;;;;;5050006;28;1468;-65
2022/04/10 07:37:06;;;;;;;;;;;;;;;;;;5052848;28;1348;-65
2022/04/10 07:39:31;;;;;;;;;;;;;;;;;;5051366;28;1263;-66
2022/04/10 07:41:56;;;;;;;;;;;;;;;;;;5050165;28;1988;-66
2022/04/10 07:44:21;;;;;;;;;;;;;;;;;;5050064;28;1267;-66
2022/04/10 07:49:30;;;;;;;;;;;;;;;;;;5050056;28;1114;-66
2022/04/10 07:51:56;;;;;;;;;;;;;;;;;;5052945;28;1279;-66
2022/04/10 07:54:21;;;;;;;;;;;;;;;;;;5050034;28;1314;-66
2022/04/10 07:56:46;;;;;;;;;;;;;;;;;;5049501;28;1294;-66
2022/04/10 07:59:11;;;;;;;;;;;;;;;;;;5050177;28;1222;-66
2022/04/10 08:01:37;;;;;;;;;;;;;;;;;;5049692;28;1967;-67
2022/04/10 08:04:03;;;;;;;;;;;;;;;;;;5049831;28;1365;-67
2022/04/10 08:06:28;;;;;;;;;;;;;;;;;;5053040;28;1321;-67
2022/04/10 08:08:53;;;;;;;;;;;;;;;;;;5049704;28;1361;-66
2022/04/10 08:11:19;;;;;;;;;;;;;;;;;;5050507;28;1288;-67
2022/04/10 08:13:44;;;;;;;;;;;;;;;;;;5049945;28;1279;-67
2022/04/10 08:16:09;;;;;;;;;;;;;;;;;;5051166;28;1278;-67
2022/04/10 08:18:34;;;;;;;;;;;;;;;;;;5050700;28;1258;-67
2022/04/10 08:20:59;;;;;;;;;;;;;;;;;;5050411;28;2021;-67
2022/04/10 08:23:24;;;;;;;;;;;;;;;;;;5048907;28;1368;-67
2022/04/10 08:25:50;;;;;;;;;;;;;;;;;;5050973;28;1384;-66
2022/04/10 08:28:15;;;;;;;;;;;;;;;;;;5050313;28;1543;-65
2022/04/10 08:30:40;;;;;;;;;;;;;;;;;;5050865;28;1266;-66
2022/04/10 08:33:07;;;;;;;;;;;;;;;;;;5050708;28;1306;-66
2022/04/10 08:35:32;;;;;;;;;;;;;;;;;;5049921;28;1282;-66
2022/04/10 08:37:59;;;;;;;;;;;;;;;;;;5050478;28;1266;-66
2022/04/10 08:40:24;;;;;;;;;;;;;;;;;;5049931;28;1914;-66
2022/04/10 08:42:49;;;;;;;;;;;;;;;;;;5049303;28;1268;-66
2022/04/10 08:45:15;;;;;;;;;;;;;;;;;;5053193;28;1250;-66
2022/04/10 08:47:42;;;;;;;;;;;;;;;;;;5054179;28;1306;-65
2022/04/10 08:50:08;;;;;;;;;;;;;;;;;;5053269;28;1310;-66
2022/04/10 08:52:33;;;;;;;;;;;;;;;;;;5052350;28;1279;-66
2022/04/10 08:54:58;;;;;;;;;;;;;;;;;;5052468;28;1274;-66
2022/04/10 08:57:24;;;;;;;;;;;;;;;;;;5053665;28;1226;-66
2022/04/10 08:59:49;;;;;;;;;;;;;;;;;;5053601;28;1290;-67
2022/04/10 09:02:14;;;;;;;;;;;;;;;;;;5053353;28;1910;-67
2022/04/10 09:04:40;;;;;;;;;;;;;;;;;;5052938;28;1293;-67
2022/04/10 09:07:07;;;;;;;;;;;;;;;;;;5054142;28;1261;-66
2022/04/10 09:09:33;;;;;;;;;;;;;;;;;;5052081;28;1259;-66
2022/04/10 09:11:58;;;;;;;;;;;;;;;;;;5053389;28;1301;-67
2022/04/10 09:14:24;;;;;;;;;;;;;;;;;;5053496;28;1290;-66
2022/04/10 09:17:10;;;;;;;;;;;;;;;;;;5053972;28;1307;-67
2022/04/10 09:19:36;;;;;;;;;;;;;;;;;;5052639;28;1282;-69
2022/04/10 09:22:18;;;;;;;;;;;;;;;;;;5053041;28;1969;-68
2022/04/10 09:25:02;;;;;;;;;;;;;;;;;;5054219;28;1310;-66
2022/04/10 09:27:31;;;;;;;;;;;;;;;;;;5054753;28;1390;-67
2022/04/10 09:29:57;;;;;;;;;;;;;;;;;;5052629;28;1341;-67
2022/04/10 09:32:22;;;;;;;;;;;;;;;;;;5053655;28;1303;-66
2022/04/10 09:34:57;;;;;;;;;;;;;;;;;;5051650;28;1278;-67
2022/04/10 09:37:22;;;;;;;;;;;;;;;;;;5051978;28;1244;-67
2022/04/10 09:39:47;;;;;;;;;;;;;;;;;;5051738;28;1346;-66
2022/04/10 09:42:14;;;;;;;;;;;;;;;;;;5056176;28;1902;-68
2022/04/10 09:44:39;;;;;;;;;;;;;;;;;;5052720;28;1290;-69
2022/04/10 09:47:06;;;;;;;;;;;;;;;;;;5053573;28;1565;-68
2022/04/10 09:49:35;;;;;;;;;;;;;;;;;;5052671;28;1274;-67
2022/04/10 09:52:04;;;;;;;;;;;;;;;;;;5050831;28;1337;-65
2022/04/10 09:54:37;;;;;;;;;;;;;;;;;;5051323;28;1242;-66
2022/04/10 09:57:03;;;;;;;;;;;;;;;;;;5053386;28;1282;-67
2022/04/10 09:59:30;;;;;;;;;;;;;;;;;;5052278;28;1318;-66
2022/04/10 10:01:55;;;;;;;;;;;;;;;;;;5052904;28;1951;-66
2022/04/10 10:04:21;;;;;;;;;;;;;;;;;;5053732;28;1248;-67
2022/04/10 10:06:47;;;;;;;;;;;;;;;;;;5054918;28;1380;-66
2022/04/10 10:09:13;;;;;;;;;;;;;;;;;;5053170;28;1396;-65
2022/04/10 10:11:39;;;;;;;;;;;;;;;;;;5053560;28;1313;-67
2022/04/10 10:14:05;;;;;;;;;;;;;;;;;;5054556;28;1626;-66
2022/04/10 10:16:31;;;;;;;;;;;;;;;;;;5052138;28;1326;-66
2022/04/10 10:18:59;;;;;;;;;;;;;;;;;;5051411;28;1318;-66
2022/04/10 10:21:24;;;;;;;;;;;;;;;;;;5052316;28;1902;-66
2022/04/10 10:23:51;;;;;;;;;;;;;;;;;;5051545;28;1305;-66
2022/04/10 10:26:43;;;;;;;;;;;;;;;;;;5053929;28;1270;-66
2022/04/10 10:29:25;;;;;;;;;;;;;;;;;;5051767;28;1287;-66
2022/04/10 10:32:11;;;;;;;;;;;;;;;;;;5053118;28;1605;-67
2022/04/10 10:34:36;;;;;;;;;;;;;;;;;;5052492;28;1391;-67
2022/04/10 10:37:02;;;;;;;;;;;;;;;;;;5050804;28;1270;-66
2022/04/10 10:39:28;;;;;;;;;;;;;;;;;;5050905;28;1318;-66
2022/04/10 10:41:54;;;;;;;;;;;;;;;;;;5051902;28;1902;-67
2022/04/10 10:44:24;;;;;;;;;;;;;;;;;;5050872;28;1271;-66
2022/04/10 10:47:03;;;;;;;;;;;;;;;;;;5052418;28;1252;-66
2022/04/10 10:49:30;;;;;;;;;;;;;;;;;;5050688;28;1152;-66
2022/04/10 10:51:55;;;;;;;;;;;;;;;;;;5050392;28;1259;-67
2022/04/10 10:54:21;;;;;;;;;;;;;;;;;;5050603;28;1267;-66
2022/04/10 10:56:47;;;;;;;;;;;;;;;;;;5051445;28;1219;-66
2022/04/10 10:59:18;;;;;;;;;;;;;;;;;;5053755;28;1389;-66
2022/04/10 11:01:53;;;;;;;;;;;;;;;;;;5051723;28;1901;-65
2022/04/10 11:04:22;;;;;;;;;;;;;;;;;;5052545;28;1299;-65
2022/04/10 11:06:48;;;;;;;;;;;;;;;;;;5053229;28;1317;-66
2022/04/10 11:09:23;;;;;;;;;;;;;;;;;;5052503;28;1349;-68
2022/04/10 11:11:50;;;;;;;;;;;;;;;;;;5049732;28;1321;-66
2022/04/10 11:14:34;;;;;;;;;;;;;;;;;;5051710;28;1269;-66
2022/04/10 11:17:07;;;;;;;;;;;;;;;;;;5050774;28;1286;-65
2022/04/10 11:19:32;;;;;;;;;;;;;;;;;;5050324;28;1270;-66
2022/04/10 11:21:57;;;;;;;;;;;;;;;;;;5050786;28;1894;-64
2022/04/10 11:24:22;;;;;;;;;;;;;;;;;;5050667;28;1313;-64
2022/04/10 11:26:48;;;;;;;;;;;;;;;;;;5051556;28;1309;-65
2022/04/10 11:29:15;;;;;;;;;;;;;;;;;;5052109;28;1369;-63
2022/04/10 11:31:44;;;;;;;;;;;;;;;;;;5050411;28;1354;-64
2022/04/10 11:34:12;;;;;;;;;;;;;;;;;;5050649;28;1294;-63
2022/04/10 11:36:52;;;;;;;;;;;;;;;;;;5051949;28;1274;-63
2022/04/10 11:39:25;;;;;;;;;;;;;;;;;;5050387;28;1179;-65
2022/04/10 11:41:50;;;;;;;;;;;;;;;;;;5051760;28;1910;-65
2022/04/10 11:44:16;;;;;;;;;;;;;;;;;;5050251;28;1267;-65
2022/04/10 11:46:44;;;;;;;;;;;;;;;;;;5050685;28;1366;-64
2022/04/10 11:49:09;;;;;;;;;;;;;;;;;;5051619;28;1440;-65
2022/04/10 11:51:50;;;;;;;;;;;;;;;;;;5050742;28;1303;-65
2022/04/10 11:54:28;;;;;;;;;;;;;;;;;;5050156;28;1396;-65
2022/04/10 11:56:54;;;;;;;;;;;;;;;;;;5050730;28;1183;-64
2022/04/10 11:59:20;;;;;;;;;;;;;;;;;;5050891;28;1318;-65
2022/04/10 12:01:46;;;;;;;;;;;;;;;;;;5052215;28;1961;-65
2022/04/10 12:04:11;;;;;;;;;;;;;;;;;;5051977;28;1358;-64
2022/04/10 12:06:37;;;;;;;;;;;;;;;;;;5052164;28;1330;-65
2022/04/10 12:09:02;;;;;;;;;;;;;;;;;;5049748;28;1278;-65
2022/04/10 12:11:36;;;;;;;;;;;;;;;;;;5050344;28;1316;-65
2022/04/10 12:14:13;;;;;;;;;;;;;;;;;;5050500;28;1368;-66
2022/04/10 12:16:40;;;;;;;;;;;;;;;;;;5051757;28;1389;-65
2022/04/10 12:19:05;;;;;;;;;;;;;;;;;;5055286;28;1267;-65
2022/04/10 12:21:30;;;;;;;;;;;;;;;;;;5053130;28;1905;-64
2022/04/10 12:23:59;;;;;;;;;;;;;;;;;;5053810;28;1298;-65
2022/04/10 12:26:26;;;;;;;;;;;;;;;;;;5054456;28;1204;-65
2022/04/10 12:28:51;;;;;;;;;;;;;;;;;;5057118;28;1305;-65
2022/04/10 12:31:18;;;;;;;;;;;;;;;;;;5053633;28;1546;-65
2022/04/10 12:33:44;;;;;;;;;;;;;;;;;;5069628;28;1345;-65
2022/04/10 12:36:19;;;;;;;;;;;;;;;;;;5054192;28;1318;-65
2022/04/10 12:38:45;;;;;;;;;;;;;;;;;;5053747;28;1325;-64
2022/04/10 12:41:10;;;;;;;;;;;;;;;;;;5055410;28;1914;-64
2022/04/10 12:43:35;;;;;;;;;;;;;;;;;;5053042;28;1388;-64
2022/04/10 12:46:10;;;;;;;;;;;;;;;;;;5053607;28;1269;-64
2022/04/10 12:48:37;;;;;;;;;;;;;;;;;;5053565;28;1322;-64
2022/04/10 12:51:08;;;;;;;;;;;;;;;;;;5053909;28;1263;-64
2022/04/10 12:53:34;;;;;;;;;;;;;;;;;;5053506;28;1303;-65
2022/04/10 12:55:59;;;;;;;;;;;;;;;;;;5054529;28;1341;-64
2022/04/10 12:58:26;;;;;;;;;;;;;;;;;;5069630;28;1289;-64
2022/04/10 13:00:53;;;;;;;;;;;;;;;;;;5053355;28;1898;-65
2022/04/10 13:03:26;;;;;;;;;;;;;;;;;;5053833;28;1370;-65
2022/04/10 13:05:55;;;;;;;;;;;;;;;;;;5057133;28;1348;-65
2022/04/10 13:08:22;;;;;;;;;;;;;;;;;;5054062;28;1261;-64
2022/04/10 13:10:48;;;;;;;;;;;;;;;;;;5055444;28;1294;-63
2022/04/10 13:13:13;;;;;;;;;;;;;;;;;;5052348;28;1275;-64
2022/04/10 13:15:39;;;;;;;;;;;;;;;;;;5052229;28;1236;-64
2022/04/10 13:18:05;;;;;;;;;;;;;;;;;;5053296;28;1219;-64
2022/04/10 13:20:30;;;;;;;;;;;;;;;;;;5052029;28;1968;-64
2022/04/10 13:22:56;;;;;;;;;;;;;;;;;;5051876;28;1346;-64
2022/04/10 13:25:22;;;;;;;;;;;;;;;;;;5057718;28;1289;-63
2022/04/10 13:27:47;;;;;;;;;;;;;;;;;;5055121;28;1667;-64
2022/04/10 13:30:12;;;;;;;;;;;;;;;;;;5051695;28;1254;-64
2022/04/10 13:32:37;;;;;;;;;;;;;;;;;;5053885;28;1458;-64
2022/04/10 13:35:03;;;;;;;;;;;;;;;;;;5052141;28;1408;-66
2022/04/10 13:37:29;;;;;;;;;;;;;;;;;;5052541;28;1329;-63
2022/04/10 13:39:54;;;;;;;;;;;;;;;;;;5055211;28;1622;-65
2022/04/10 13:42:20;;;;;;;;;;;;;;;;;;5053800;28;1955;-64
2022/04/10 13:44:46;;;;;;;;;;;;;;;;;;5053424;28;1310;-63
2022/04/10 13:47:11;;;;;;;;;;;;;;;;;;5051320;28;1255;-64
2022/04/10 13:49:36;;;;;;;;;;;;;;;;;;5055899;28;1356;-65
2022/04/10 13:52:02;;;;;;;;;;;;;;;;;;5051588;28;1271;-64
2022/04/10 13:54:28;;;;;;;;;;;;;;;;;;5051658;28;1231;-64
2022/04/10 13:56:53;;;;;;;;;;;;;;;;;;5053272;28;1432;-65
2022/04/10 13:59:18;;;;;;;;;;;;;;;;;;5051015;28;1294;-65
2022/04/10 14:01:43;;;;;;;;;;;;;;;;;;5052349;28;1951;-64
2022/04/10 14:04:09;;;;;;;;;;;;;;;;;;5054189;28;1360;-64
2022/04/10 14:06:34;;;;;;;;;;;;;;;;;;5052138;28;1211;-64
2022/04/10 14:08:59;;;;;;;;;;;;;;;;;;5052561;28;1310;-65
2022/04/10 14:11:27;;;;;;;;;;;;;;;;;;5053287;28;1278;-65
2022/04/10 14:13:53;;;;;;;;;;;;;;;;;;5050775;28;1336;-64
2022/04/10 14:16:19;;;;;;;;;;;;;;;;;;5051022;28;1266;-64
2022/04/10 14:18:44;;;;;;;;;;;;;;;;;;5053294;28;1621;-64
2022/04/10 14:21:09;;;;;;;;;;;;;;;;;;5051695;28;1897;-64
2022/04/10 14:23:35;;;;;;;;;;;;;;;;;;5051130;28;1357;-64
2022/04/10 14:26:00;;;;;;;;;;;;;;;;;;5052333;28;1311;-64
2022/04/10 14:28:25;;;;;;;;;;;;;;;;;;5054235;28;1242;-63
2022/04/10 14:30:51;;;;;;;;;;;;;;;;;;5051916;28;1411;-64
2022/04/10 14:33:16;;;;;;;;;;;;;;;;;;5051203;28;1279;-64
2022/04/10 14:35:41;;;;;;;;;;;;;;;;;;5052584;28;1251;-64
2022/04/10 14:38:06;;;;;;;;;;;;;;;;;;5051011;28;1231;-64
2022/04/10 14:40:31;;;;;;;;;;;;;;;;;;5051593;28;1929;-64
2022/04/10 14:42:57;;;;;;;;;;;;;;;;;;5051071;28;1361;-64
2022/04/10 14:45:22;;;;;;;;;;;;;;;;;;5049571;28;1447;-63
2022/04/10 14:47:48;;;;;;;;;;;;;;;;;;5052626;28;1542;-64
2022/04/10 14:50:15;;;;;;;;;;;;;;;;;;5051405;28;1417;-64
2022/04/10 14:52:41;;;;;;;;;;;;;;;;;;5053197;28;1301;-64
2022/04/10 14:55:06;;;;;;;;;;;;;;;;;;5052310;28;1282;-67
2022/04/10 14:57:31;;;;;;;;;;;;;;;;;;5067325;28;1647;-63
2022/04/10 14:59:56;;;;;;;;;;;;;;;;;;5051661;28;1282;-64
2022/04/10 15:02:22;;;;;;;;;;;;;;;;;;5050832;28;1964;-64
2022/04/10 15:04:47;;;;;;;;;;;;;;;;;;5065645;28;1286;-63
2022/04/10 15:07:12;;;;;;;;;;;;;;;;;;5052035;28;1509;-62
2022/04/10 15:09:37;;;;;;;;;;;;;;;;;;5052155;28;1242;-63
2022/04/10 15:12:07;;;;;;;;;;;;;;;;;;5050026;28;1329;-61
2022/04/10 15:14:33;;;;;;;;;;;;;;;;;;5053006;28;1350;-62
2022/04/10 15:16:58;;;;;;;;;;;;;;;;;;5053507;28;1302;-63
2022/04/10 15:19:23;;;;;;;;;;;;;;;;;;5050476;28;1425;-62
2022/04/10 15:21:48;;;;;;;;;;;;;;;;;;5052971;28;1966;-62
2022/04/10 15:24:13;;;;;;;;;;;;;;;;;;5050744;28;1372;-63
2022/04/10 15:26:45;;;;;;;;;;;;;;;;;;5054167;28;1566;-64
2022/04/10 15:29:11;;;;;;;;;;;;;;;;;;5053413;28;1581;-63
2022/04/10 15:31:36;;;;;;;;;;;;;;;;;;5051973;28;1366;-63
2022/04/10 15:34:01;;;;;;;;;;;;;;;;;;5050014;28;1263;-63
2022/04/10 15:36:26;;;;;;;;;;;;;;;;;;5052923;28;1310;-64
2022/04/10 15:38:51;;;;;;;;;;;;;;;;;;5050416;28;1263;-64
2022/04/10 15:41:17;;;;;;;;;;;;;;;;;;5052076;28;1901;-66
2022/04/10 15:43:42;;;;;;;;;;;;;;;;;;5050731;28;1255;-65
2022/04/10 15:46:07;;;;;;;;;;;;;;;;;;5065162;28;1294;-65
2022/04/10 15:48:34;;;;;;;;;;;;;;;;;;5052526;28;1290;-64
2022/04/10 15:51:00;;;;;;;;;;;;;;;;;;5050449;28;1286;-65
2022/04/10 15:53:25;;;;;;;;;;;;;;;;;;5049041;28;1355;-65
2022/04/10 15:55:50;;;;;;;;;;;;;;;;;;5052532;28;1298;-65
2022/04/10 15:58:17;;;;;;;;;;;;;;;;;;5050527;28;1282;-65
2022/04/10 16:00:43;;;;;;;;;;;;;;;;;;5049981;28;1898;-65
2022/04/10 16:03:08;;;;;;;;;;;;;;;;;;5052487;28;1345;-66
2022/04/10 16:05:34;;;;;;;;;;;;;;;;;;5050195;28;1258;-64
2022/04/10 16:07:59;;;;;;;;;;;;;;;;;;5050071;28;1271;-64
2022/04/10 16:10:25;;;;;;;;;;;;;;;;;;5049404;28;1254;-65
2022/04/10 16:12:52;;;;;;;;;;;;;;;;;;5051646;28;1439;-64
2022/04/10 16:15:18;;;;;;;;;;;;;;;;;;5050162;28;1313;-65
2022/04/10 16:17:46;;;;;;;;;;;;;;;;;;5049957;28;1111;-66
2022/04/10 16:20:15;;;;;;;;;;;;;;;;;;5050726;28;1570;-65
2022/04/10 16:22:43;;;;;;;;;;;;;;;;;;5050271;28;1930;-65
2022/04/10 16:25:08;;;;;;;;;;;;;;;;;;5051171;28;1308;-66
2022/04/10 16:30:17;;;;;;;;;;;;;;;;;;5049251;28;1304;-65
2022/04/10 16:32:46;;;;;;;;;;;;;;;;;;5051256;28;1333;-66
2022/04/10 16:35:20;;;;;;;;;;;;;;;;;;5050528;28;1319;-64
2022/04/10 16:37:46;;;;;;;;;;;;;;;;;;5051445;28;1320;-65
2022/04/10 16:40:11;;;;;;;;;;;;;;;;;;5050569;28;1616;-64
2022/04/10 16:42:38;;;;;;;;;;;;;;;;;;5050817;28;1898;-65
2022/04/10 16:45:03;;;;;;;;;;;;;;;;;;5049251;28;1354;-64
2022/04/10 16:47:28;;;;;;;;;;;;;;;;;;5050391;28;2021;-66
2022/04/10 16:49:55;;;;;;;;;;;;;;;;;;5050232;28;1104;-64
2022/04/10 16:52:22;;;;;;;;;;;;;;;;;;5051247;28;1368;-67
2022/04/10 16:54:49;;;;;;;;;;;;;;;;;;5049089;28;1303;-67
2022/04/10 16:57:15;;;;;;;;;;;;;;;;;;5050224;28;1353;-68
2022/04/10 16:59:42;;;;;;;;;;;;;;;;;;5051141;28;1290;-67
2022/04/10 17:02:08;;;;;;;;;;;;;;;;;;5049993;28;1894;-67
2022/04/10 17:04:35;;;;;;;;;;;;;;;;;;5050484;28;1421;-68